Time;durP1;ratioP1;P1;durP2;ratioP2;P2;SDS_P1;SDS_P2;PMS_P1;PMS_P2;Temp;Humidity;BMP_temperature;BMP_pressure;BME280_temperature;BME280_humidity;BME280_pressure;Samples;Min_cycle;Max_cycle;Signal;HPM_P1;HPM_P2
2022/04/26 03:36:10;;;;;;;15.15;6.50;;;;;;;17.09;54.46;99134.56;5035261;28;20418;-86
2022/04/26 03:38:37;;;;;;;15.25;6.40;;;;;;;17.13;54.42;99149.91;5035094;28;20025;-85
2022/04/26 03:41:02;;;;;;;15.35;6.47;;;;;;;17.01;54.51;99134.91;5034982;28;20025;-86
2022/04/26 03:43:29;;;;;;;15.60;6.15;;;;;;;17.33;54.19;99172.78;5034836;28;20032;-85
2022/04/26 03:45:55;;;;;;;12.98;6.13;;;;;;;16.94;54.00;99115.53;5034663;28;20026;-86
2022/04/26 03:48:21;;;;;;;13.90;6.80;;;;;;;17.06;54.01;99124.38;5016681;28;20025;-85
2022/04/26 03:50:46;;;;;;;14.80;5.95;;;;;;;16.38;54.41;99058.94;5016866;28;20596;-85
2022/04/26 03:53:12;;;;;;;15.48;6.07;;;;;;;16.62;54.05;99070.47;5016509;28;20433;-86
2022/04/26 03:55:37;;;;;;;17.02;7.22;;;;;;;15.73;54.36;98980.75;5033250;28;20487;-86
2022/04/26 03:58:03;;;;;;;12.88;6.05;;;;;;;16.83;54.52;99146.47;5016589;28;20523;-85
2022/04/26 04:00:28;;;;;;;11.02;6.60;;;;;;;17.16;54.57;99167.31;5016428;28;20042;-85
2022/04/26 04:02:53;;;;;;;19.70;7.07;;;;;;;15.59;54.13;98916.22;5016565;28;20031;-85
2022/04/26 04:05:21;;;;;;;18.27;6.63;;;;;;;17.20;54.30;99152.47;5016520;28;20014;-85
2022/04/26 04:07:47;;;;;;;12.65;6.05;;;;;;;16.74;53.90;99062.53;5016734;28;20021;-86
2022/04/26 04:10:12;;;;;;;17.40;7.82;;;;;;;16.96;54.03;99103.59;5016475;28;20021;-85
2022/04/26 04:12:38;;;;;;;15.55;7.28;;;;;;;17.29;54.09;99150.28;5034298;28;20064;-85
2022/04/26 04:15:04;;;;;;;13.20;6.50;;;;;;;17.25;53.91;99133.13;5034369;28;20025;-86
2022/04/26 04:17:29;;;;;;;18.75;7.50;;;;;;;17.34;53.90;99166.41;5016117;28;20021;-86
2022/04/26 04:19:54;;;;;;;18.05;6.85;;;;;;;17.47;53.88;99179.53;5033607;28;20021;-85
2022/04/26 04:22:20;;;;;;;16.45;7.68;;;;;;;17.29;53.85;99160.94;5033483;28;20128;-85
2022/04/26 04:24:45;;;;;;;13.80;7.20;;;;;;;17.10;53.70;99115.69;5015850;28;20060;-85
2022/04/26 04:27:11;;;;;;;17.65;7.18;;;;;;;17.15;53.83;99139.84;5033323;28;20032;-86
2022/04/26 04:29:36;;;;;;;18.40;7.63;;;;;;;16.84;53.63;99082.25;5033653;28;20021;-85
2022/04/26 04:32:03;;;;;;;21.17;7.68;;;;;;;17.40;53.93;99146.81;5015601;28;20040;-85
2022/04/26 04:34:28;;;;;;;19.38;7.47;;;;;;;17.68;53.83;99213.69;5015908;28;20429;-85
2022/04/26 04:36:54;;;;;;;27.30;8.57;;;;;;;16.82;53.56;99072.84;5015967;28;20032;-85
2022/04/26 04:39:20;;;;;;;19.60;7.40;;;;;;;17.77;53.59;99255.03;5033600;28;20021;-85
2022/04/26 04:41:47;;;;;;;17.75;8.00;;;;;;;17.13;53.88;99120.56;5033532;28;20078;-85
2022/04/26 04:44:12;;;;;;;19.27;8.95;;;;;;;16.80;53.79;99073.09;5033975;28;20021;-85
2022/04/26 04:46:37;;;;;;;17.15;7.80;;;;;;;17.35;53.98;99157.38;5033658;28;20036;-86
2022/04/26 04:49:03;;;;;;;18.73;7.55;;;;;;;17.70;54.11;99218.81;5033551;28;20032;-85
2022/04/26 04:51:28;;;;;;;26.75;8.93;;;;;;;17.05;53.95;99117.41;5015879;28;20016;-85
2022/04/26 04:53:54;;;;;;;20.20;8.30;;;;;;;17.07;53.99;99089.47;5034084;28;20032;-86
2022/04/26 04:56:20;;;;;;;22.10;8.48;;;;;;;17.73;53.86;99199.66;5016416;28;20025;-85
2022/04/26 04:58:46;;;;;;;19.20;9.10;;;;;;;16.88;53.78;99055.94;5015588;28;20049;-86
2022/04/26 05:01:11;;;;;;;20.63;8.23;;;;;;;17.59;53.58;99145.63;5032192;28;20022;-85
2022/04/26 05:03:37;;;;;;;24.23;8.48;;;;;;;17.61;53.48;99142.75;5033748;28;20505;-86
2022/04/26 05:06:02;;;;;;;21.55;8.20;;;;;;;16.79;53.52;99020.00;5033186;28;20025;-85
2022/04/26 05:08:28;;;;;;;20.50;7.60;;;;;;;18.24;53.55;99236.31;5033156;28;20033;-85
2022/04/26 05:10:53;;;;;;;22.88;7.65;;;;;;;17.58;53.42;99161.88;5033131;28;20567;-85
2022/04/26 05:13:19;;;;;;;20.50;7.05;;;;;;;18.24;53.96;99238.19;5033752;28;20036;-85
2022/04/26 05:15:45;;;;;;;15.15;7.10;;;;;;;17.85;53.58;99194.31;5033235;28;20518;-85
2022/04/26 05:18:14;;;;;;;19.65;7.43;;;;;;;18.19;53.29;99198.81;5033135;28;20036;-85
2022/04/26 05:20:39;;;;;;;22.60;7.55;;;;;;;17.87;53.19;99136.97;5032693;28;20399;-85
2022/04/26 05:25:49;;;;;;;17.88;6.70;;;;;;;18.51;53.04;99227.78;5033127;28;20032;-85
2022/04/26 05:28:14;;;;;;;19.98;8.00;;;;;;;18.52;53.16;99229.41;5034535;28;20028;-85
2022/04/26 05:30:40;;;;;;;17.90;6.53;;;;;;;18.25;52.81;99157.78;5052301;28;20028;-86
2022/04/26 05:33:05;;;;;;;18.80;6.43;;;;;;;18.54;52.83;99225.44;5051942;28;20017;-85
2022/04/26 05:35:31;;;;;;;17.65;7.15;;;;;;;18.59;52.89;99232.78;5035208;28;20033;-85
2022/04/26 05:37:56;;;;;;;20.88;7.60;;;;;;;18.73;52.91;99236.81;5041825;28;20047;-85
2022/04/26 05:40:22;;;;;;;15.90;7.70;;;;;;;18.50;52.83;99189.53;5032369;28;20043;-85
2022/04/26 05:42:47;;;;;;;20.33;7.80;;;;;;;18.59;52.80;99185.47;5050570;28;20029;-85
2022/04/26 05:45:13;;;;;;;18.40;7.75;;;;;;;18.86;52.79;99192.94;5050141;28;20027;-86
2022/04/26 05:47:42;;;;;;;19.52;7.93;;;;;;;18.48;52.70;99132.00;5049444;28;20476;-85
2022/04/26 05:50:12;;;;;;;20.65;7.78;;;;;;;19.32;52.62;99248.91;5050701;28;20540;-86
2022/04/26 05:52:38;;;;;;;18.42;6.90;;;;;;;19.27;52.56;99253.31;5050501;28;20025;-85
2022/04/26 05:55:05;;;;;;;19.05;8.15;;;;;;;19.47;52.42;99251.00;5051445;28;20144;-84
2022/04/26 05:57:31;;;;;;;17.77;8.07;;;;;;;19.04;52.36;99171.31;5050145;28;20564;-85
2022/04/26 05:59:57;;;;;;;22.08;7.72;;;;;;;19.65;52.20;99255.34;5050497;28;20033;-85
2022/04/26 06:02:22;;;;;;;35.25;8.65;;;;;;;19.73;52.15;99264.84;5030322;28;20443;-84
2022/04/26 06:04:48;;;;;;;19.48;8.55;;;;;;;19.45;52.21;99204.13;5051186;28;20029;-85
2022/04/26 06:07:13;;;;;;;15.75;7.82;;;;;;;19.91;51.97;99267.25;5048951;28;20033;-84
2022/04/26 06:09:40;;;;;;;21.52;8.70;;;;;;;19.79;51.67;99221.00;5049079;28;20025;-85
2022/04/26 06:12:06;;;;;;;19.27;6.68;;;;;;;19.51;51.27;99208.50;5054225;28;20016;-85
2022/04/26 06:14:31;;;;;;;14.32;5.68;;;;;;;18.75;50.83;99030.66;5068147;28;20033;-84
2022/04/26 06:16:57;;;;;;;18.98;5.97;;;;;;;20.07;50.71;99250.38;5056786;28;20025;-85
2022/04/26 06:19:22;;;;;;;13.68;5.13;;;;;;;20.19;50.63;99252.94;5070394;28;20029;-83
2022/04/26 06:21:47;;;;;;;13.98;5.20;;;;;;;19.58;50.40;99155.63;5051164;28;20018;-84
2022/04/26 06:24:13;;;;;;;14.63;4.68;;;;;;;20.12;50.08;99258.47;5050601;28;20072;-85
2022/04/26 06:26:39;;;;;;;11.20;5.32;;;;;;;20.18;49.47;99238.72;5033270;28;20025;-85
2022/04/26 06:29:04;;;;;;;18.80;6.32;;;;;;;18.91;49.05;99019.13;5051462;28;20045;-85
2022/04/26 06:31:30;;;;;;;21.05;6.40;;;;;;;19.91;48.86;99179.66;5038201;28;20075;-85
2022/04/26 06:33:55;;;;;;;16.48;6.90;;;;;;;19.93;48.74;99166.81;5039261;28;20034;-84
2022/04/26 06:36:21;;;;;;;13.57;5.72;;;;;;;20.24;48.40;99212.81;5037504;28;20037;-85
2022/04/26 06:38:46;;;;;;;20.10;5.30;;;;;;;19.83;48.32;99139.06;5014601;28;20025;-85
2022/04/26 06:41:11;;;;;;;15.60;5.03;;;;;;;20.34;48.24;99218.28;5020989;28;20019;-85
2022/04/26 06:43:37;;;;;;;18.80;5.18;;;;;;;20.02;48.09;99143.06;5036606;28;20059;-85
2022/04/26 06:46:02;;;;;;;11.68;5.43;;;;;;;20.27;48.17;99172.91;5026300;28;20025;-85
2022/04/26 06:48:28;;;;;;;14.15;4.82;;;;;;;19.87;47.86;99108.88;5044641;28;20025;-85
2022/04/26 06:50:55;;;;;;;22.52;5.22;;;;;;;20.06;48.10;99120.06;5049337;28;20500;-85
2022/04/26 06:53:20;;;;;;;14.40;4.10;;;;;;;20.88;47.70;99250.63;5024642;28;20092;-84
2022/04/26 06:55:46;;;;;;;17.35;5.18;;;;;;;20.60;47.50;99193.41;5030833;28;20052;-85
2022/04/26 06:58:11;;;;;;;13.57;4.00;;;;;;;20.68;47.18;99208.25;5026626;28;20541;-84
2022/04/26 07:00:37;;;;;;;10.82;4.45;;;;;;;20.56;46.94;99176.22;5033235;28;20029;-83
2022/04/26 07:03:02;;;;;;;18.30;6.57;;;;;;;20.72;46.79;99193.28;5033817;28;20025;-83
2022/04/26 07:05:27;;;;;;;13.63;5.50;;;;;;;20.84;46.67;99198.50;5047468;28;20107;-84
2022/04/26 07:07:53;;;;;;;12.48;5.70;;;;;;;20.87;46.46;99198.00;5049372;28;20021;-84
2022/04/26 07:10:19;;;;;;;11.38;3.88;;;;;;;21.04;45.99;99216.69;5036725;28;20028;-85
2022/04/26 07:12:45;;;;;;;11.18;4.50;;;;;;;21.29;46.10;99229.56;5054896;28;20031;-83
2022/04/26 07:15:10;;;;;;;10.48;4.00;;;;;;;21.51;46.06;99271.38;5062142;28;20048;-84
2022/04/26 07:17:40;;;;;;;8.90;4.28;;;;;;;21.58;46.14;99262.34;5053135;28;20123;-84
2022/04/26 07:20:06;;;;;;;9.63;3.75;;;;;;;21.30;46.00;99218.56;5054934;28;20029;-84
2022/04/26 07:22:32;;;;;;;13.88;4.57;;;;;;;21.65;46.15;99261.06;5055202;28;20021;-83
2022/04/26 07:24:57;;;;;;;8.73;4.70;;;;;;;20.60;46.24;99122.88;5038873;28;20081;-84
2022/04/26 07:27:23;;;;;;;16.00;4.45;;;;;;;20.89;45.50;99128.78;5033388;28;20025;-83
2022/04/26 07:29:52;;;;;;;12.10;3.75;;;;;;;21.64;44.89;99242.50;5050961;28;20040;-83
2022/04/26 07:32:18;;;;;;;8.43;3.90;;;;;;;21.72;44.29;99253.59;5044657;28;20061;-84
2022/04/26 07:34:45;;;;;;;10.15;3.90;;;;;;;21.47;43.58;99188.88;5033606;28;20507;-83
2022/04/26 07:37:11;;;;;;;13.77;6.07;;;;;;;21.45;42.92;99164.97;5015946;28;20044;-83
2022/04/26 07:39:36;;;;;;;14.18;6.05;;;;;;;21.69;43.26;99205.72;5033549;28;20056;-85
2022/04/26 07:42:04;;;;;;;12.30;3.60;;;;;;;22.30;42.79;99259.09;5033627;28;20025;-85
2022/04/26 07:44:30;;;;;;;19.23;5.22;;;;;;;22.08;42.38;99251.16;5045399;28;20028;-83
2022/04/26 07:46:56;;;;;;;9.25;3.67;;;;;;;21.87;41.88;99177.63;5053661;28;20025;-85
2022/04/26 07:49:23;;;;;;;6.25;2.90;;;;;;;22.14;41.63;99224.03;5035666;28;20025;-85
2022/04/26 07:51:50;;;;;;;9.55;4.75;;;;;;;21.89;40.90;99159.34;5053676;28;20059;-83
2022/04/26 07:54:16;;;;;;;13.27;3.55;;;;;;;22.58;40.38;99266.75;5053308;28;20059;-84
2022/04/26 07:56:43;;;;;;;15.77;4.30;;;;;;;21.99;39.94;99185.47;5045785;28;20044;-83
2022/04/26 07:59:09;;;;;;;7.10;3.90;;;;;;;21.95;39.94;99154.81;5033530;28;20077;-83
2022/04/26 08:01:35;;;;;;;11.80;3.90;;;;;;;22.26;39.47;99198.81;5015759;28;20056;-84
2022/04/26 08:04:01;;;;;;;8.65;3.60;;;;;;;22.74;39.15;99238.00;5016184;28;20029;-84
2022/04/26 08:06:26;;;;;;;6.30;3.72;;;;;;;22.67;38.67;99226.69;5016488;28;20029;-83
2022/04/26 08:08:54;;;;;;;7.25;3.00;;;;;;;22.44;38.19;99179.53;5033978;28;20029;-85
2022/04/26 08:11:20;;;;;;;10.18;4.97;;;;;;;22.77;38.00;99234.78;5033829;28;20083;-83
2022/04/26 08:13:46;;;;;;;11.20;6.32;;;;;;;22.45;37.96;99149.69;5033721;28;20029;-84
2022/04/26 08:16:12;;;;;;;11.73;5.07;;;;;;;23.28;38.39;99261.88;5016313;28;20028;-84
2022/04/26 08:18:37;;;;;;;11.80;4.32;;;;;;;22.76;38.69;99177.47;5015788;28;20017;-83
2022/04/26 08:21:05;;;;;;;7.28;2.67;;;;;;;23.37;38.23;99276.44;5015540;28;20071;-83
2022/04/26 08:23:31;;;;;;;16.02;4.63;;;;;;;23.29;38.40;99266.19;5015380;28;20025;-84
2022/04/26 08:28:41;;;;;;;9.52;5.57;;;;;;;23.56;37.76;99274.03;5033361;28;20087;-83
2022/04/26 08:31:06;;;;;;;12.43;3.33;;;;;;;23.42;36.93;99219.84;5015124;28;20030;-83
2022/04/26 08:33:34;;;;;;;7.15;2.15;;;;;;;23.24;36.32;99194.25;5014926;28;20044;-83
2022/04/26 08:36:03;;;;;;;6.95;3.53;;;;;;;23.08;35.96;99147.66;5014951;28;20455;-83
2022/04/26 08:38:28;;;;;;;12.20;3.10;;;;;;;23.95;34.89;99277.00;5032738;28;20028;-84
2022/04/26 08:40:54;;;;;;;13.02;6.30;;;;;;;23.54;34.76;99200.72;5032700;28;20025;-83
2022/04/26 08:43:19;;;;;;;9.60;3.75;;;;;;;23.92;34.32;99227.13;5032826;28;20048;-82
2022/04/26 08:45:48;;;;;;;8.52;3.47;;;;;;;23.29;34.09;99118.03;5032620;28;20022;-84
2022/04/26 08:51:04;;;;;;;14.15;4.82;;;;;;;23.88;33.63;99166.75;5032647;28;20037;-85
2022/04/26 08:53:32;;;;;;;27.45;5.43;;;;;;;24.57;33.59;99248.84;5014558;28;20465;-85
2022/04/26 08:56:04;;;;;;;7.03;2.92;;;;;;;24.82;33.41;99266.81;5014796;28;20056;-85
2022/04/26 08:58:33;;;;;;;13.80;9.10;;;;;;;25.03;33.25;99265.63;5032094;28;20120;-85
2022/04/26 09:01:24;;;;;;;8.40;3.95;;;;;;;25.24;33.05;99259.00;5031932;28;20034;-84
2022/04/26 09:03:55;;;;;;;6.93;2.88;;;;;;;25.41;32.71;99263.25;5033287;28;20029;-84
2022/04/26 09:06:34;;;;;;;6.55;2.85;;;;;;;25.34;32.29;99237.34;5033477;28;20026;-84
2022/04/26 09:09:08;;;;;;;8.38;4.68;;;;;;;25.74;32.81;99264.34;5032742;28;20029;-84
2022/04/26 09:11:34;;;;;;;7.22;3.38;;;;;;;25.94;32.52;99273.06;5015323;28;20104;-84
2022/04/26 09:14:08;;;;;;;8.52;2.90;;;;;;;25.08;32.02;99100.81;5015454;28;20533;-84
2022/04/26 09:16:34;;;;;;;12.93;6.13;;;;;;;26.08;31.82;99234.56;5033019;28;20033;-84
2022/04/26 09:19:05;;;;;;;7.57;4.35;;;;;;;26.34;31.96;99259.47;5013326;28;20025;-84
2022/04/26 09:21:31;;;;;;;;;;;;;;;26.36;32.25;99259.97;5014470;28;20076;-85
2022/04/26 09:23:59;;;;;;;9.27;3.08;;;;;;;26.56;31.80;99257.03;5014243;28;19905;-84
2022/04/26 09:26:35;;;;;;;11.18;5.32;;;;;;;26.28;31.72;99218.09;5014081;28;20083;-84
2022/04/26 09:29:01;;;;;;;14.45;5.45;;;;;;;26.89;31.31;99255.25;5031831;28;20021;-84
2022/04/26 09:31:29;;;;;;;12.25;4.95;;;;;;;26.14;31.18;99117.03;5031800;28;20021;-84
2022/04/26 09:34:04;;;;;;;8.55;2.22;;;;;;;26.62;30.97;99169.19;5031678;28;20033;-84
2022/04/26 09:36:35;;;;;;;9.60;3.38;;;;;;;26.89;30.51;99220.03;5014213;28;20029;-84
2022/04/26 09:39:01;;;;;;;13.45;6.70;;;;;;;27.08;30.69;99222.78;5014114;28;20036;-84
2022/04/26 09:41:28;;;;;;;9.77;5.25;;;;;;;27.01;30.53;99195.25;5013915;28;20143;-84
2022/04/26 09:44:03;;;;;;;8.98;4.28;;;;;;;27.63;29.77;99245.53;5031561;28;20395;-83
2022/04/26 09:46:53;;;;;;;8.60;3.47;;;;;;;27.36;29.77;99191.97;5013572;28;20044;-84
2022/04/26 09:49:21;;;;;;;9.82;3.97;;;;;;;27.08;29.38;99136.06;5013443;28;20037;-84
2022/04/26 09:51:54;;;;;;;10.07;3.38;;;;;;;26.81;29.12;99061.69;5031047;28;20022;-84
2022/04/26 09:54:20;;;;;;;8.75;3.90;;;;;;;28.11;28.98;99226.19;5030138;28;20133;-84
2022/04/26 09:56:47;;;;;;;8.40;4.30;;;;;;;27.99;28.34;99217.75;5013317;28;20469;-83
2022/04/26 09:59:25;;;;;;;10.80;6.70;;;;;;;27.87;28.00;99190.31;5031259;28;20022;-82
2022/04/26 10:01:54;;;;;;;9.10;4.78;;;;;;;28.27;27.77;99234.91;5013666;28;20021;-83
2022/04/26 10:04:22;;;;;;;12.57;5.05;;;;;;;27.99;27.58;99136.34;5031026;28;20045;-83
2022/04/26 10:06:52;;;;;;;11.70;4.93;;;;;;;28.27;27.27;99131.72;5013878;28;20498;-83
2022/04/26 10:09:18;;;;;;;12.43;7.20;;;;;;;28.90;27.12;99212.41;5012114;28;20497;-83
2022/04/26 10:11:44;;;;;;;7.53;3.65;;;;;;;28.58;26.42;99169.88;5013111;28;20068;-82
2022/04/26 10:14:11;;;;;;;8.68;4.25;;;;;;;28.87;26.37;99216.53;5031032;28;20403;-83
2022/04/26 10:16:38;;;;;;;7.65;3.33;;;;;;;28.44;26.44;99127.28;5013367;28;20025;-83
2022/04/26 10:19:06;;;;;;;9.73;2.67;;;;;;;28.97;26.34;99208.13;5031282;28;20044;-82
2022/04/26 10:21:35;;;;;;;5.38;2.90;;;;;;;29.15;26.01;99202.88;5013464;28;20025;-83
2022/04/26 10:24:04;;;;;;;6.35;2.78;;;;;;;29.22;25.53;99204.03;5013699;28;20032;-83
2022/04/26 10:26:30;;;;;;;10.32;5.55;;;;;;;29.12;24.77;99207.00;5013483;28;20028;-83
2022/04/26 10:29:12;;;;;;;9.98;5.10;;;;;;;29.31;24.70;99201.38;5031567;28;20022;-83
2022/04/26 10:31:49;;;;;;;5.75;3.40;;;;;;;29.37;24.67;99203.66;5013318;28;20104;-83
2022/04/26 10:34:16;;;;;;;5.75;3.58;;;;;;;29.60;24.47;99198.22;5031455;28;20026;-83
2022/04/26 10:36:44;;;;;;;6.47;4.20;;;;;;;29.25;24.65;99126.47;5013457;28;20025;-82
2022/04/26 10:39:12;;;;;;;10.05;4.40;;;;;;;29.99;24.24;99190.09;5013317;28;20445;-83
2022/04/26 10:41:40;;;;;;;11.00;5.45;;;;;;;29.95;24.02;99193.78;5013705;28;20073;-83
2022/04/26 10:44:15;;;;;;;11.77;4.38;;;;;;;30.04;23.63;99200.88;5031066;28;20029;-83
2022/04/26 10:46:42;;;;;;;6.35;2.67;;;;;;;29.97;24.00;99197.00;5031092;28;20506;-83
2022/04/26 10:49:26;;;;;;;9.40;6.10;;;;;;;30.30;24.17;99192.81;5013590;28;20018;-83
2022/04/26 10:51:55;;;;;;;7.47;3.38;;;;;;;30.22;23.42;99198.22;5013019;28;20064;-82
2022/04/26 10:54:59;;;;;;;9.65;3.03;;;;;;;29.95;23.08;99117.56;5013382;28;20030;-82
2022/04/26 10:57:27;;;;;;;12.77;9.05;;;;;;;30.38;23.95;99168.63;5025676;28;20068;-82
2022/04/26 10:59:58;;;;;;;17.58;7.18;;;;;;;30.63;23.88;99193.25;5050491;28;20109;-84
2022/04/26 11:02:25;;;;;;;8.38;5.00;;;;;;;29.76;23.78;99019.84;5049454;28;20017;-84
2022/04/26 11:05:11;;;;;;;7.57;4.93;;;;;;;30.95;23.39;99170.16;5050632;28;20029;-84
2022/04/26 11:07:48;;;;;;;5.28;3.75;;;;;;;31.19;23.13;99201.59;5050705;28;20029;-83
2022/04/26 11:10:18;;;;;;;12.55;3.47;;;;;;;31.37;22.81;99188.78;5049494;28;20047;-84
2022/04/26 11:12:44;;;;;;;8.02;2.13;;;;;;;30.67;22.49;99084.38;5049910;28;20028;-84
2022/04/26 11:15:14;;;;;;;7.95;2.55;;;;;;;31.32;22.39;99184.28;5050468;28;20025;-83
2022/04/26 11:17:41;;;;;;;5.85;2.38;;;;;;;31.63;22.24;99194.16;5050204;28;20025;-83
2022/04/26 11:20:17;;;;;;;7.10;2.92;;;;;;;31.50;21.77;99147.63;5050395;28;20036;-82
2022/04/26 11:22:49;;;;;;;5.13;1.83;;;;;;;31.67;21.80;99189.66;5050207;28;20513;-82
2022/04/26 11:28:11;;;;;;;8.38;4.07;;;;;;;31.75;21.42;99173.28;5050396;28;20043;-84
2022/04/26 11:30:47;;;;;;;8.45;2.78;;;;;;;31.82;21.50;99172.75;5048814;28;20040;-84
2022/04/26 11:33:19;;;;;;;6.45;2.53;;;;;;;32.00;21.48;99171.59;5048587;28;20013;-83
2022/04/26 11:35:54;;;;;;;11.75;7.50;;;;;;;31.95;20.14;99147.16;5048775;28;20071;-84
2022/04/26 11:38:19;;;;;;;3.45;2.00;;;;;;;32.04;20.66;99153.41;5050018;28;20029;-83
2022/04/26 11:40:50;;;;;;;3.80;2.03;;;;;;;31.77;20.77;99101.97;5050022;28;20178;-84
2022/04/26 11:43:17;;;;;;;8.20;3.42;;;;;;;31.79;20.42;99149.66;5052719;28;20017;-84
2022/04/26 11:45:46;;;;;;;8.77;6.30;;;;;;;31.64;20.87;99168.47;5053916;28;20063;-83
2022/04/26 11:48:13;;;;;;;9.60;6.35;;;;;;;31.23;20.46;99088.84;5054040;28;20017;-83
2022/04/26 11:50:40;;;;;;;5.47;2.45;;;;;;;31.86;20.48;99160.06;5053627;28;20056;-84
2022/04/26 11:53:14;;;;;;;12.90;6.38;;;;;;;31.89;20.16;99152.00;5052347;28;20086;-82
2022/04/26 11:55:54;;;;;;;7.03;3.17;;;;;;;31.97;20.50;99149.59;5052187;28;20139;-82
2022/04/26 11:58:22;;;;;;;5.15;2.30;;;;;;;31.84;20.69;99141.28;5052147;28;20037;-83
2022/04/26 12:00:51;;;;;;;4.82;2.13;;;;;;;32.00;20.66;99132.56;5052360;28;20053;-82
2022/04/26 12:03:18;;;;;;;3.60;1.90;;;;;;;31.76;20.31;99075.78;5054005;28;20052;-83
2022/04/26 12:05:44;;;;;;;5.35;2.13;;;;;;;31.83;20.37;99117.03;5052314;28;20180;-82
2022/04/26 12:08:12;;;;;;;7.30;2.00;;;;;;;31.39;20.41;99072.72;5053420;28;20032;-82
2022/04/26 12:10:37;;;;;;;7.00;1.92;;;;;;;31.37;20.45;99049.63;5053349;28;20473;-82
2022/04/26 12:13:05;;;;;;;6.40;2.28;;;;;;;31.91;20.66;99132.56;5050909;28;20056;-83
2022/04/26 12:15:34;;;;;;;6.60;2.20;;;;;;;31.56;20.14;99129.97;5053779;28;20029;-82
2022/04/26 12:18:08;;;;;;;8.18;5.22;;;;;;;31.12;20.93;99079.34;5053900;28;20029;-82
2022/04/26 12:20:36;;;;;;;5.85;2.40;;;;;;;31.23;20.81;99118.84;5053750;28;20036;-82
2022/04/26 12:23:06;;;;;;;4.72;1.70;;;;;;;30.35;20.84;99037.38;5053658;28;20017;-82
2022/04/26 12:25:33;;;;;;;7.13;3.83;;;;;;;30.47;21.60;99120.41;5053102;28;20027;-82
2022/04/26 12:28:07;;;;;;;2.95;1.98;;;;;;;29.98;21.68;99086.97;5051619;28;20078;-82
2022/04/26 12:30:37;;;;;;;6.93;3.15;;;;;;;28.69;22.49;98929.47;5053003;28;20390;-82
2022/04/26 12:33:04;;;;;;;6.00;2.28;;;;;;;28.72;21.87;98953.31;5071549;28;20047;-82
2022/04/26 12:35:29;;;;;;;6.03;3.05;;;;;;;29.33;22.86;99063.19;5055512;28;20521;-84
2022/04/26 12:38:10;;;;;;;7.10;2.50;;;;;;;29.40;22.92;99107.84;5052159;28;20117;-83
2022/04/26 12:40:36;;;;;;;7.55;2.53;;;;;;;29.28;22.89;99099.47;5069166;28;20028;-82
2022/04/26 12:43:03;;;;;;;12.23;6.20;;;;;;;28.80;23.29;99045.72;5072697;28;20063;-83
2022/04/26 12:45:29;;;;;;;11.57;6.55;;;;;;;28.93;23.68;99081.31;5072644;28;20020;-83
2022/04/26 12:51:12;;;;;;;13.63;5.90;;;;;;;27.79;24.41;98951.16;5066791;28;20475;-83
2022/04/26 12:53:38;;;;;;;10.98;6.07;;;;;;;28.11;24.37;99041.63;5062075;28;20452;-82
2022/04/26 12:56:08;;;;;;;11.02;3.03;;;;;;;28.07;24.27;99002.63;5062931;28;20107;-82
2022/04/26 12:58:39;;;;;;;7.25;3.22;;;;;;;28.65;24.36;99107.78;5073037;28;20078;-83
2022/04/26 13:01:06;;;;;;;10.00;3.55;;;;;;;28.56;24.80;99101.47;5073467;28;20032;-84
2022/04/26 13:03:33;;;;;;;5.50;3.47;;;;;;;28.30;24.52;99053.19;5055073;28;20017;-82
2022/04/26 13:06:07;;;;;;;8.80;6.18;;;;;;;28.48;24.82;99095.69;5072664;28;20493;-82
2022/04/26 13:08:33;;;;;;;9.45;4.50;;;;;;;28.26;25.08;99052.19;5054542;28;20024;-82
2022/04/26 13:10:59;;;;;;;11.38;5.95;;;;;;;28.22;24.84;99070.16;5052204;28;20146;-82
2022/04/26 13:13:27;;;;;;;11.05;4.53;;;;;;;27.80;25.32;99033.34;5076294;28;20031;-83
2022/04/26 13:15:53;;;;;;;12.25;5.95;;;;;;;28.07;25.03;99068.56;5056308;28;20036;-84
2022/04/26 13:18:19;;;;;;;7.13;3.75;;;;;;;28.17;25.21;99090.06;5055921;28;20413;-83
2022/04/26 13:20:48;;;;;;;10.65;5.22;;;;;;;27.76;25.43;99029.63;5064408;28;20021;-84
2022/04/26 13:23:14;;;;;;;13.60;3.97;;;;;;;28.05;25.62;99086.25;5052716;28;20501;-83
2022/04/26 13:25:41;;;;;;;14.52;6.93;;;;;;;28.05;26.19;99080.84;5061285;28;20099;-83
2022/04/26 13:28:07;;;;;;;8.80;6.25;;;;;;;27.56;26.07;99022.69;5065139;28;20026;-84
2022/04/26 13:30:32;;;;;;;14.25;9.10;;;;;;;27.96;26.18;99096.22;5072201;28;20492;-84
2022/04/26 13:32:58;;;;;;;13.13;4.93;;;;;;;27.51;26.41;99039.88;5071585;28;20027;-84
2022/04/26 13:35:25;;;;;;;10.48;4.03;;;;;;;27.26;26.45;99023.25;5053827;28;20502;-84
2022/04/26 13:37:52;;;;;;;16.27;4.80;;;;;;;27.40;26.48;99051.19;5053902;28;20020;-84
2022/04/26 13:40:18;;;;;;;10.13;3.00;;;;;;;26.94;26.38;98986.97;5071349;28;20415;-83
2022/04/26 13:42:43;;;;;;;11.40;3.63;;;;;;;27.47;26.69;99081.41;5053770;28;20023;-84
2022/04/26 13:45:09;;;;;;;15.55;5.78;;;;;;;27.16;26.78;99057.59;5052687;28;20024;-84
2022/04/26 13:47:36;;;;;;;21.23;11.25;;;;;;;27.49;26.96;99099.00;5068880;28;20103;-84
2022/04/26 13:50:05;;;;;;;19.33;10.70;;;;;;;27.30;26.85;99075.78;5051520;28;20548;-84
2022/04/26 13:52:31;;;;;;;21.17;12.02;;;;;;;27.10;27.03;99052.56;5071112;28;20021;-84
2022/04/26 13:54:56;;;;;;;14.15;8.30;;;;;;;26.67;27.14;98978.75;5053797;28;20029;-84
2022/04/26 13:57:21;;;;;;;16.25;10.13;;;;;;;27.05;27.26;99063.47;5063475;28;20056;-84
2022/04/26 13:59:47;;;;;;;15.25;4.07;;;;;;;26.75;27.17;98994.31;5033912;28;20056;-84
2022/04/26 14:02:13;;;;;;;16.58;5.47;;;;;;;27.33;27.30;99086.00;5038516;28;20079;-84
2022/04/26 14:04:39;;;;;;;8.40;2.58;;;;;;;27.31;27.16;99080.91;5033254;28;20025;-83
2022/04/26 14:07:05;;;;;;;12.40;5.70;;;;;;;27.20;27.34;99090.31;5040641;28;20623;-84
2022/04/26 14:09:30;;;;;;;13.90;8.20;;;;;;;26.72;27.40;99001.13;5043932;28;20025;-84
2022/04/26 14:11:55;;;;;;;11.77;4.50;;;;;;;27.16;27.52;99071.13;5056242;28;20048;-83
2022/04/26 14:22:34;;;;;;;8.23;2.75;;;;;;;26.77;27.52;99025.47;5050921;28;20078;-85
2022/04/26 14:25:03;;;;;;;8.93;3.42;;;;;;;26.65;28.59;99013.44;5033323;28;20537;-85
2022/04/26 14:27:32;;;;;;;15.88;7.45;;;;;;;26.31;29.30;98959.56;5033238;28;20032;-84
2022/04/26 14:29:58;;;;;;;14.77;5.38;;;;;;;26.86;29.15;99058.88;5033988;28;20024;-84
2022/04/26 14:32:24;;;;;;;8.75;2.70;;;;;;;26.82;28.31;99027.28;5049171;28;20025;-84
2022/04/26 14:34:50;;;;;;;9.25;3.38;;;;;;;26.79;27.90;99020.53;5049128;28;20041;-84
2022/04/26 14:37:16;;;;;;;9.00;3.78;;;;;;;26.83;27.67;99018.03;5047301;28;20028;-84
2022/04/26 14:39:42;;;;;;;10.32;3.30;;;;;;;26.71;27.35;99001.44;5039379;28;20026;-84
2022/04/26 14:42:08;;;;;;;9.95;2.90;;;;;;;26.17;27.59;98902.69;5032684;28;20036;-84
2022/04/26 14:44:34;;;;;;;11.73;6.78;;;;;;;26.84;27.93;99015.03;5033050;28;20035;-84
2022/04/26 14:47:02;;;;;;;12.50;4.15;;;;;;;26.36;28.08;98964.94;5050783;28;20060;-84
2022/04/26 14:49:28;;;;;;;10.65;5.32;;;;;;;26.30;28.34;98939.81;5033375;28;20028;-82
2022/04/26 14:51:54;;;;;;;11.23;3.20;;;;;;;26.02;28.51;98917.28;5033272;28;20020;-83
2022/04/26 14:54:20;;;;;;;12.98;6.00;;;;;;;26.39;28.49;98981.38;5051599;28;20036;-84
2022/04/26 14:56:47;;;;;;;11.13;3.60;;;;;;;26.24;29.02;98968.88;5033383;28;20048;-82
2022/04/26 14:59:13;;;;;;;12.32;6.15;;;;;;;25.97;29.17;98937.06;5051393;28;20086;-83
2022/04/26 15:01:44;;;;;;;14.98;6.25;;;;;;;25.72;29.45;98915.78;5033117;28;20154;-83
2022/04/26 15:04:10;;;;;;;14.77;7.07;;;;;;;26.21;29.85;99001.13;5033203;28;20386;-83
2022/04/26 15:06:35;;;;;;;9.25;4.95;;;;;;;25.87;30.02;98977.78;5051120;28;20047;-83
2022/04/26 15:11:44;;;;;;;10.23;3.90;;;;;;;25.67;29.92;98967.25;5050630;28;20082;-82
2022/04/26 15:16:54;;;;;;;9.18;4.82;;;;;;;25.62;29.83;98969.97;5051959;28;20032;-83
2022/04/26 15:19:20;;;;;;;11.13;6.07;;;;;;;25.96;29.91;99042.84;5054453;28;20029;-83
2022/04/26 15:21:45;;;;;;;17.65;4.90;;;;;;;25.72;30.06;98996.13;5054632;28;20096;-83
2022/04/26 15:24:12;;;;;;;13.05;3.13;;;;;;;26.18;29.95;99072.88;5054587;28;20029;-83
2022/04/26 15:26:37;;;;;;;9.07;3.78;;;;;;;25.89;30.05;99053.22;5054292;28;20164;-83
2022/04/26 15:29:07;;;;;;;8.23;3.28;;;;;;;25.75;30.26;99036.09;5036340;28;20111;-83
2022/04/26 15:31:34;;;;;;;9.77;2.83;;;;;;;25.87;30.18;99077.03;5036415;28;20036;-83
2022/04/26 15:34:00;;;;;;;9.95;2.85;;;;;;;25.37;30.61;99046.78;5054417;28;20567;-83